Tetlin, Alaska
Current Conditions -  °F | °C
As of 2:53 AM on Friday 24 Oct 2014 (Local Time) from PAOR Reporting Station
Overcast Overcast  
Wind Chill: 21°   Ceiling: 3000
Heat Index: 21°   Visibility: 10mi
Dew Point: 17°   Wind: 0mph
Humidity: 85%   Direction: NA
Pressure: 29.72"   Gusts: NA
Location:  63.13°N, 142.52°W
Report Text: PAOR 241053Z 00000KT 10SM BKN030 OVC038 M06/M08 A2972 RMK AO2 SLP100 T10611083
Loading
Personal Weather Stations






























Interactive Weather Map
Tropical Storm Tracking
New forecast layout! Learn more

10-Day Weather Forecast

Advertisements
Track Severe Weather on mobile